sensor_id;sensor_type;location;lat;lon;timestamp;P1;durP1;ratioP1;P2;durP2;ratioP2
69197;SDS011;56311;50.298;8.514;2022-12-07T00:01:31;22.83;;;12.82;;
69197;SDS011;56311;50.298;8.514;2022-12-07T00:04:01;22.40;;;13.20;;
69197;SDS011;56311;50.298;8.514;2022-12-07T00:06:33;22.70;;;13.13;;
69197;SDS011;56311;50.298;8.514;2022-12-07T00:09:01;21.60;;;12.73;;
69197;SDS011;56311;50.298;8.514;2022-12-07T00:11:28;22.33;;;12.98;;
69197;SDS011;56311;50.298;8.514;2022-12-07T00:13:56;18.85;;;12.15;;
69197;SDS011;56311;50.298;8.514;2022-12-07T00:16:25;20.30;;;11.88;;
69197;SDS011;56311;50.298;8.514;2022-12-07T00:18:54;19.58;;;12.43;;
69197;SDS011;56311;50.298;8.514;2022-12-07T00:21:23;38.28;;;24.80;;
69197;SDS011;56311;50.298;8.514;2022-12-07T00:23:52;26.38;;;16.27;;
69197;SDS011;56311;50.298;8.514;2022-12-07T00:26:20;19.85;;;12.45;;
69197;SDS011;56311;50.298;8.514;2022-12-07T00:28:49;20.95;;;12.38;;
69197;SDS011;56311;50.298;8.514;2022-12-07T00:31:18;21.48;;;13.05;;
69197;SDS011;56311;50.298;8.514;2022-12-07T00:33:46;21.33;;;12.77;;
69197;SDS011;56311;50.298;8.514;2022-12-07T00:36:13;19.33;;;11.52;;
69197;SDS011;56311;50.298;8.514;2022-12-07T00:38:43;17.23;;;10.07;;
69197;SDS011;56311;50.298;8.514;2022-12-07T00:41:10;21.38;;;11.60;;
69197;SDS011;56311;50.298;8.514;2022-12-07T00:43:39;16.88;;;10.60;;
69197;SDS011;56311;50.298;8.514;2022-12-07T00:46:07;17.80;;;10.02;;
69197;SDS011;56311;50.298;8.514;2022-12-07T00:48:34;16.55;;;10.25;;
69197;SDS011;56311;50.298;8.514;2022-12-07T00:51:01;18.27;;;9.82;;
69197;SDS011;56311;50.298;8.514;2022-12-07T00:53:28;17.17;;;10.10;;
69197;SDS011;56311;50.298;8.514;2022-12-07T00:55:56;15.63;;;9.10;;
69197;SDS011;56311;50.298;8.514;2022-12-07T00:58:23;15.32;;;8.60;;
69197;SDS011;56311;50.298;8.514;2022-12-07T01:00:50;18.13;;;9.82;;
69197;SDS011;56311;50.298;8.514;2022-12-07T01:03:20;16.60;;;8.70;;
69197;SDS011;56311;50.298;8.514;2022-12-07T01:05:49;12.88;;;7.63;;
69197;SDS011;56311;50.298;8.514;2022-12-07T01:08:17;14.85;;;8.63;;
69197;SDS011;56311;50.298;8.514;2022-12-07T01:10:44;13.13;;;7.55;;
69197;SDS011;56311;50.298;8.514;2022-12-07T01:13:13;14.27;;;8.27;;
69197;SDS011;56311;50.298;8.514;2022-12-07T01:15:40;15.00;;;8.07;;
69197;SDS011;56311;50.298;8.514;2022-12-07T01:18:07;13.02;;;7.50;;
69197;SDS011;56311;50.298;8.514;2022-12-07T01:20:34;14.00;;;8.02;;
69197;SDS011;56311;50.298;8.514;2022-12-07T01:23:01;11.90;;;7.18;;
69197;SDS011;56311;50.298;8.514;2022-12-07T01:25:28;12.65;;;6.75;;
69197;SDS011;56311;50.298;8.514;2022-12-07T01:27:54;12.70;;;6.53;;
69197;SDS011;56311;50.298;8.514;2022-12-07T01:30:22;11.15;;;6.53;;
69197;SDS011;56311;50.298;8.514;2022-12-07T01:32:49;11.15;;;6.72;;
69197;SDS011;56311;50.298;8.514;2022-12-07T01:35:16;11.20;;;6.10;;
69197;SDS011;56311;50.298;8.514;2022-12-07T01:37:42;20.38;;;6.55;;
69197;SDS011;56311;50.298;8.514;2022-12-07T01:40:09;10.38;;;5.32;;
69197;SDS011;56311;50.298;8.514;2022-12-07T01:42:37;12.57;;;4.90;;
69197;SDS011;56311;50.298;8.514;2022-12-07T01:48:06;10.80;;;5.75;;
69197;SDS011;56311;50.298;8.514;2022-12-07T01:50:35;10.68;;;6.20;;
69197;SDS011;56311;50.298;8.514;2022-12-07T01:53:04;10.90;;;6.30;;
69197;SDS011;56311;50.298;8.514;2022-12-07T01:55:35;9.00;;;5.22;;
69197;SDS011;56311;50.298;8.514;2022-12-07T01:58:05;10.02;;;5.10;;
69197;SDS011;56311;50.298;8.514;2022-12-07T02:00:33;9.77;;;5.47;;
69197;SDS011;56311;50.298;8.514;2022-12-07T02:03:02;9.38;;;5.30;;
69197;SDS011;56311;50.298;8.514;2022-12-07T02:05:33;8.52;;;5.07;;
69197;SDS011;56311;50.298;8.514;2022-12-07T02:08:01;8.73;;;5.20;;
69197;SDS011;56311;50.298;8.514;2022-12-07T02:10:30;8.23;;;4.75;;
69197;SDS011;56311;50.298;8.514;2022-12-07T02:12:58;8.75;;;4.35;;
69197;SDS011;56311;50.298;8.514;2022-12-07T02:15:29;7.35;;;4.38;;
69197;SDS011;56311;50.298;8.514;2022-12-07T02:18:07;6.68;;;3.95;;
69197;SDS011;56311;50.298;8.514;2022-12-07T02:20:41;7.28;;;4.20;;
69197;SDS011;56311;50.298;8.514;2022-12-07T02:23:28;7.75;;;4.43;;
69197;SDS011;56311;50.298;8.514;2022-12-07T02:26:17;9.40;;;5.28;;
69197;SDS011;56311;50.298;8.514;2022-12-07T02:29:00;12.93;;;5.30;;
69197;SDS011;56311;50.298;8.514;2022-12-07T02:31:36;10.25;;;5.45;;
69197;SDS011;56311;50.298;8.514;2022-12-07T02:34:22;10.38;;;5.88;;
69197;SDS011;56311;50.298;8.514;2022-12-07T02:36:57;11.02;;;5.65;;
69197;SDS011;56311;50.298;8.514;2022-12-07T02:39:33;9.85;;;5.53;;
69197;SDS011;56311;50.298;8.514;2022-12-07T02:42:09;9.90;;;5.82;;
69197;SDS011;56311;50.298;8.514;2022-12-07T02:44:42;10.57;;;5.85;;
69197;SDS011;56311;50.298;8.514;2022-12-07T02:47:10;9.57;;;5.68;;
69197;SDS011;56311;50.298;8.514;2022-12-07T02:49:40;10.70;;;6.68;;
69197;SDS011;56311;50.298;8.514;2022-12-07T02:52:08;12.48;;;6.47;;
69197;SDS011;56311;50.298;8.514;2022-12-07T02:54:35;10.27;;;6.00;;
69197;SDS011;56311;50.298;8.514;2022-12-07T02:57:03;11.32;;;6.13;;
69197;SDS011;56311;50.298;8.514;2022-12-07T02:59:44;11.10;;;6.25;;
69197;SDS011;56311;50.298;8.514;2022-12-07T03:02:22;12.15;;;6.78;;
69197;SDS011;56311;50.298;8.514;2022-12-07T03:07:30;10.57;;;6.53;;
69197;SDS011;56311;50.298;8.514;2022-12-07T03:10:07;13.70;;;7.35;;
69197;SDS011;56311;50.298;8.514;2022-12-07T03:12:41;12.52;;;7.00;;
69197;SDS011;56311;50.298;8.514;2022-12-07T03:15:14;12.23;;;7.30;;
69197;SDS011;56311;50.298;8.514;2022-12-07T03:17:47;12.15;;;7.40;;
69197;SDS011;56311;50.298;8.514;2022-12-07T03:20:17;11.57;;;7.22;;
69197;SDS011;56311;50.298;8.514;2022-12-07T03:22:53;12.70;;;7.13;;
69197;SDS011;56311;50.298;8.514;2022-12-07T03:25:21;10.40;;;6.90;;
69197;SDS011;56311;50.298;8.514;2022-12-07T03:27:49;12.70;;;6.50;;
69197;SDS011;56311;50.298;8.514;2022-12-07T03:30:24;11.52;;;7.15;;
69197;SDS011;56311;50.298;8.514;2022-12-07T03:35:26;10.85;;;6.75;;
69197;SDS011;56311;50.298;8.514;2022-12-07T03:37:56;11.57;;;6.70;;
69197;SDS011;56311;50.298;8.514;2022-12-07T03:40:28;13.55;;;8.07;;
69197;SDS011;56311;50.298;8.514;2022-12-07T03:43:00;12.75;;;8.00;;
69197;SDS011;56311;50.298;8.514;2022-12-07T03:45:30;11.90;;;7.30;;
69197;SDS011;56311;50.298;8.514;2022-12-07T03:48:04;11.52;;;7.38;;
69197;SDS011;56311;50.298;8.514;2022-12-07T03:50:36;16.23;;;8.02;;
69197;SDS011;56311;50.298;8.514;2022-12-07T03:53:11;13.23;;;8.35;;
69197;SDS011;56311;50.298;8.514;2022-12-07T03:55:42;15.85;;;8.63;;
69197;SDS011;56311;50.298;8.514;2022-12-07T03:58:12;15.20;;;9.20;;
69197;SDS011;56311;50.298;8.514;2022-12-07T04:00:44;13.20;;;8.25;;
69197;SDS011;56311;50.298;8.514;2022-12-07T04:03:13;14.40;;;8.63;;
69197;SDS011;56311;50.298;8.514;2022-12-07T04:05:40;16.25;;;9.45;;
69197;SDS011;56311;50.298;8.514;2022-12-07T04:08:08;16.20;;;10.10;;
69197;SDS011;56311;50.298;8.514;2022-12-07T04:10:35;17.83;;;10.88;;
69197;SDS011;56311;50.298;8.514;2022-12-07T04:13:02;18.25;;;10.82;;
69197;SDS011;56311;50.298;8.514;2022-12-07T04:15:29;16.88;;;9.32;;
69197;SDS011;56311;50.298;8.514;2022-12-07T04:17:57;17.00;;;9.82;;
69197;SDS011;56311;50.298;8.514;2022-12-07T04:20:24;16.70;;;10.30;;
69197;SDS011;56311;50.298;8.514;2022-12-07T04:22:51;14.70;;;9.18;;
69197;SDS011;56311;50.298;8.514;2022-12-07T04:25:18;13.30;;;7.57;;
69197;SDS011;56311;50.298;8.514;2022-12-07T04:27:44;15.43;;;8.98;;
69197;SDS011;56311;50.298;8.514;2022-12-07T04:30:11;16.05;;;9.75;;
69197;SDS011;56311;50.298;8.514;2022-12-07T04:32:38;17.48;;;10.27;;
69197;SDS011;56311;50.298;8.514;2022-12-07T04:35:07;14.13;;;9.40;;
69197;SDS011;56311;50.298;8.514;2022-12-07T04:37:34;15.32;;;9.55;;
69197;SDS011;56311;50.298;8.514;2022-12-07T04:40:01;15.25;;;9.32;;
69197;SDS011;56311;50.298;8.514;2022-12-07T04:42:31;16.48;;;10.30;;
69197;SDS011;56311;50.298;8.514;2022-12-07T04:44:58;16.90;;;8.35;;
69197;SDS011;56311;50.298;8.514;2022-12-07T04:47:25;15.60;;;9.48;;
69197;SDS011;56311;50.298;8.514;2022-12-07T04:49:52;15.20;;;9.88;;
69197;SDS011;56311;50.298;8.514;2022-12-07T04:52:20;14.30;;;8.48;;
69197;SDS011;56311;50.298;8.514;2022-12-07T04:54:46;16.13;;;9.07;;
69197;SDS011;56311;50.298;8.514;2022-12-07T04:57:13;15.30;;;8.90;;
69197;SDS011;56311;50.298;8.514;2022-12-07T04:59:40;16.40;;;10.23;;
69197;SDS011;56311;50.298;8.514;2022-12-07T05:02:11;18.15;;;10.02;;
69197;SDS011;56311;50.298;8.514;2022-12-07T05:04:38;14.63;;;9.70;;
69197;SDS011;56311;50.298;8.514;2022-12-07T05:07:04;19.45;;;11.45;;
69197;SDS011;56311;50.298;8.514;2022-12-07T05:09:32;17.10;;;10.98;;
69197;SDS011;56311;50.298;8.514;2022-12-07T05:11:59;21.30;;;11.85;;
69197;SDS011;56311;50.298;8.514;2022-12-07T05:14:26;17.52;;;9.90;;
69197;SDS011;56311;50.298;8.514;2022-12-07T05:16:52;17.85;;;11.02;;
69197;SDS011;56311;50.298;8.514;2022-12-07T05:19:20;19.70;;;11.35;;
69197;SDS011;56311;50.298;8.514;2022-12-07T05:21:47;21.45;;;11.80;;
69197;SDS011;56311;50.298;8.514;2022-12-07T05:24:14;22.90;;;12.75;;
69197;SDS011;56311;50.298;8.514;2022-12-07T05:26:44;22.77;;;12.65;;
69197;SDS011;56311;50.298;8.514;2022-12-07T05:29:11;21.13;;;12.15;;
69197;SDS011;56311;50.298;8.514;2022-12-07T05:31:39;22.77;;;12.82;;
69197;SDS011;56311;50.298;8.514;2022-12-07T05:34:06;18.27;;;11.70;;
69197;SDS011;56311;50.298;8.514;2022-12-07T05:36:32;18.77;;;11.40;;
69197;SDS011;56311;50.298;8.514;2022-12-07T05:38:59;20.98;;;10.80;;
69197;SDS011;56311;50.298;8.514;2022-12-07T05:41:26;21.63;;;12.25;;
69197;SDS011;56311;50.298;8.514;2022-12-07T05:44:12;21.77;;;12.07;;
69197;SDS011;56311;50.298;8.514;2022-12-07T05:46:39;24.08;;;12.65;;
69197;SDS011;56311;50.298;8.514;2022-12-07T05:49:06;23.63;;;12.15;;
69197;SDS011;56311;50.298;8.514;2022-12-07T05:51:33;21.52;;;13.18;;
69197;SDS011;56311;50.298;8.514;2022-12-07T05:53:59;18.38;;;11.27;;
69197;SDS011;56311;50.298;8.514;2022-12-07T05:56:26;19.08;;;11.27;;
69197;SDS011;56311;50.298;8.514;2022-12-07T05:58:53;18.02;;;10.80;;
69197;SDS011;56311;50.298;8.514;2022-12-07T06:01:40;17.75;;;9.93;;
69197;SDS011;56311;50.298;8.514;2022-12-07T06:04:07;17.63;;;10.15;;
69197;SDS011;56311;50.298;8.514;2022-12-07T06:06:34;17.25;;;10.32;;
69197;SDS011;56311;50.298;8.514;2022-12-07T06:09:01;15.65;;;9.20;;
69197;SDS011;56311;50.298;8.514;2022-12-07T06:11:28;13.77;;;8.95;;
69197;SDS011;56311;50.298;8.514;2022-12-07T06:14:14;15.75;;;8.65;;
69197;SDS011;56311;50.298;8.514;2022-12-07T06:16:42;15.00;;;9.05;;
69197;SDS011;56311;50.298;8.514;2022-12-07T06:19:09;13.40;;;7.57;;
69197;SDS011;56311;50.298;8.514;2022-12-07T06:21:36;10.75;;;6.30;;
69197;SDS011;56311;50.298;8.514;2022-12-07T06:24:02;10.63;;;6.88;;
69197;SDS011;56311;50.298;8.514;2022-12-07T06:26:30;10.98;;;6.78;;
69197;SDS011;56311;50.298;8.514;2022-12-07T06:28:57;12.63;;;6.55;;
69197;SDS011;56311;50.298;8.514;2022-12-07T06:31:23;12.93;;;7.57;;
69197;SDS011;56311;50.298;8.514;2022-12-07T06:33:56;14.93;;;8.23;;
69197;SDS011;56311;50.298;8.514;2022-12-07T06:36:23;12.68;;;8.35;;
69197;SDS011;56311;50.298;8.514;2022-12-07T06:38:52;13.25;;;8.27;;
69197;SDS011;56311;50.298;8.514;2022-12-07T06:41:19;13.70;;;8.88;;
69197;SDS011;56311;50.298;8.514;2022-12-07T06:43:46;14.77;;;9.38;;
69197;SDS011;56311;50.298;8.514;2022-12-07T06:46:20;15.63;;;9.40;;
69197;SDS011;56311;50.298;8.514;2022-12-07T06:48:47;19.00;;;8.98;;
69197;SDS011;56311;50.298;8.514;2022-12-07T06:51:16;14.52;;;9.63;;
69197;SDS011;56311;50.298;8.514;2022-12-07T06:53:43;13.98;;;9.27;;
69197;SDS011;56311;50.298;8.514;2022-12-07T06:56:10;15.63;;;9.23;;
69197;SDS011;56311;50.298;8.514;2022-12-07T06:58:36;14.55;;;9.43;;
69197;SDS011;56311;50.298;8.514;2022-12-07T07:01:08;13.02;;;8.30;;
69197;SDS011;56311;50.298;8.514;2022-12-07T07:03:35;14.18;;;8.90;;
69197;SDS011;56311;50.298;8.514;2022-12-07T07:06:02;14.57;;;8.90;;
69197;SDS011;56311;50.298;8.514;2022-12-07T07:08:30;14.63;;;8.85;;
69197;SDS011;56311;50.298;8.514;2022-12-07T07:10:57;12.48;;;8.23;;
69197;SDS011;56311;50.298;8.514;2022-12-07T07:13:24;14.60;;;7.70;;
69197;SDS011;56311;50.298;8.514;2022-12-07T07:15:51;11.95;;;8.10;;
69197;SDS011;56311;50.298;8.514;2022-12-07T07:18:20;13.02;;;8.43;;
69197;SDS011;56311;50.298;8.514;2022-12-07T07:20:47;14.02;;;9.00;;
69197;SDS011;56311;50.298;8.514;2022-12-07T07:23:14;17.23;;;8.68;;
69197;SDS011;56311;50.298;8.514;2022-12-07T07:25:42;14.73;;;8.88;;
69197;SDS011;56311;50.298;8.514;2022-12-07T07:28:09;15.13;;;8.95;;
69197;SDS011;56311;50.298;8.514;2022-12-07T07:30:35;14.68;;;8.40;;
69197;SDS011;56311;50.298;8.514;2022-12-07T07:33:03;10.40;;;7.43;;
69197;SDS011;56311;50.298;8.514;2022-12-07T07:35:31;13.75;;;8.13;;
69197;SDS011;56311;50.298;8.514;2022-12-07T07:37:59;12.95;;;7.80;;
69197;SDS011;56311;50.298;8.514;2022-12-07T07:40:26;11.05;;;6.85;;
69197;SDS011;56311;50.298;8.514;2022-12-07T07:42:57;11.38;;;7.07;;
69197;SDS011;56311;50.298;8.514;2022-12-07T07:45:24;10.98;;;7.38;;
69197;SDS011;56311;50.298;8.514;2022-12-07T07:47:52;10.80;;;6.78;;
69197;SDS011;56311;50.298;8.514;2022-12-07T07:50:19;10.90;;;6.60;;
69197;SDS011;56311;50.298;8.514;2022-12-07T07:52:47;11.75;;;7.57;;
69197;SDS011;56311;50.298;8.514;2022-12-07T07:55:14;12.52;;;7.25;;
69197;SDS011;56311;50.298;8.514;2022-12-07T07:57:41;15.07;;;7.43;;
69197;SDS011;56311;50.298;8.514;2022-12-07T08:00:12;11.13;;;7.60;;
69197;SDS011;56311;50.298;8.514;2022-12-07T08:02:40;12.52;;;7.35;;
69197;SDS011;56311;50.298;8.514;2022-12-07T08:05:09;13.13;;;6.97;;
69197;SDS011;56311;50.298;8.514;2022-12-07T08:07:37;14.00;;;5.88;;
69197;SDS011;56311;50.298;8.514;2022-12-07T08:10:04;11.15;;;6.38;;
69197;SDS011;56311;50.298;8.514;2022-12-07T08:12:35;12.43;;;6.20;;
69197;SDS011;56311;50.298;8.514;2022-12-07T08:15:02;11.70;;;6.18;;
69197;SDS011;56311;50.298;8.514;2022-12-07T08:17:30;10.23;;;6.40;;
69197;SDS011;56311;50.298;8.514;2022-12-07T08:19:57;12.32;;;6.68;;
69197;SDS011;56311;50.298;8.514;2022-12-07T08:22:24;10.93;;;6.13;;
69197;SDS011;56311;50.298;8.514;2022-12-07T08:24:51;15.63;;;6.18;;
69197;SDS011;56311;50.298;8.514;2022-12-07T08:27:18;11.90;;;6.15;;
69197;SDS011;56311;50.298;8.514;2022-12-07T08:29:45;10.10;;;6.28;;
69197;SDS011;56311;50.298;8.514;2022-12-07T08:32:12;11.48;;;6.35;;
69197;SDS011;56311;50.298;8.514;2022-12-07T08:34:40;10.80;;;6.18;;
69197;SDS011;56311;50.298;8.514;2022-12-07T08:37:06;9.73;;;5.45;;
69197;SDS011;56311;50.298;8.514;2022-12-07T08:39:33;11.25;;;6.07;;
69197;SDS011;56311;50.298;8.514;2022-12-07T08:42:00;11.65;;;6.32;;
69197;SDS011;56311;50.298;8.514;2022-12-07T08:44:27;8.88;;;6.15;;
69197;SDS011;56311;50.298;8.514;2022-12-07T08:46:55;11.15;;;6.25;;
69197;SDS011;56311;50.298;8.514;2022-12-07T08:49:26;7.72;;;5.05;;
69197;SDS011;56311;50.298;8.514;2022-12-07T08:51:56;9.32;;;5.30;;
69197;SDS011;56311;50.298;8.514;2022-12-07T08:54:23;11.18;;;5.40;;
69197;SDS011;56311;50.298;8.514;2022-12-07T08:56:52;8.65;;;5.03;;
69197;SDS011;56311;50.298;8.514;2022-12-07T08:59:24;8.75;;;5.15;;
69197;SDS011;56311;50.298;8.514;2022-12-07T09:01:53;10.25;;;5.40;;
69197;SDS011;56311;50.298;8.514;2022-12-07T09:04:19;11.15;;;5.63;;
69197;SDS011;56311;50.298;8.514;2022-12-07T09:06:47;9.50;;;5.15;;
69197;SDS011;56311;50.298;8.514;2022-12-07T09:09:15;11.15;;;5.82;;
69197;SDS011;56311;50.298;8.514;2022-12-07T09:11:42;8.52;;;5.10;;
69197;SDS011;56311;50.298;8.514;2022-12-07T09:14:11;9.98;;;4.90;;
69197;SDS011;56311;50.298;8.514;2022-12-07T09:16:38;12.65;;;5.00;;
69197;SDS011;56311;50.298;8.514;2022-12-07T09:19:05;8.98;;;5.00;;
69197;SDS011;56311;50.298;8.514;2022-12-07T09:21:32;9.07;;;4.72;;
69197;SDS011;56311;50.298;8.514;2022-12-07T09:23:59;9.25;;;4.15;;
69197;SDS011;56311;50.298;8.514;2022-12-07T09:26:28;8.48;;;4.50;;
69197;SDS011;56311;50.298;8.514;2022-12-07T09:28:54;7.57;;;4.32;;
69197;SDS011;56311;50.298;8.514;2022-12-07T09:31:21;7.85;;;4.20;;
69197;SDS011;56311;50.298;8.514;2022-12-07T09:33:53;10.60;;;4.15;;
69197;SDS011;56311;50.298;8.514;2022-12-07T09:36:21;8.48;;;3.97;;
69197;SDS011;56311;50.298;8.514;2022-12-07T09:38:48;10.35;;;4.10;;
69197;SDS011;56311;50.298;8.514;2022-12-07T09:41:14;8.07;;;3.90;;
69197;SDS011;56311;50.298;8.514;2022-12-07T09:43:43;10.30;;;4.10;;
69197;SDS011;56311;50.298;8.514;2022-12-07T09:46:10;7.50;;;4.03;;
69197;SDS011;56311;50.298;8.514;2022-12-07T09:48:41;9.70;;;4.53;;
69197;SDS011;56311;50.298;8.514;2022-12-07T09:51:12;9.50;;;4.72;;
69197;SDS011;56311;50.298;8.514;2022-12-07T09:53:49;10.88;;;5.05;;
69197;SDS011;56311;50.298;8.514;2022-12-07T09:56:17;10.63;;;5.13;;
69197;SDS011;56311;50.298;8.514;2022-12-07T09:58:46;10.40;;;4.75;;
69197;SDS011;56311;50.298;8.514;2022-12-07T10:01:15;8.73;;;5.43;;
69197;SDS011;56311;50.298;8.514;2022-12-07T10:03:45;11.20;;;5.07;;
69197;SDS011;56311;50.298;8.514;2022-12-07T10:06:16;8.93;;;5.35;;
69197;SDS011;56311;50.298;8.514;2022-12-07T10:08:43;9.50;;;4.88;;
69197;SDS011;56311;50.298;8.514;2022-12-07T10:11:10;8.63;;;4.88;;
69197;SDS011;56311;50.298;8.514;2022-12-07T10:13:38;8.43;;;5.05;;
69197;SDS011;56311;50.298;8.514;2022-12-07T10:16:09;9.55;;;5.07;;
69197;SDS011;56311;50.298;8.514;2022-12-07T10:19:04;9.93;;;4.80;;
69197;SDS011;56311;50.298;8.514;2022-12-07T10:21:58;7.15;;;4.47;;
69197;SDS011;56311;50.298;8.514;2022-12-07T10:24:27;7.85;;;4.38;;
69197;SDS011;56311;50.298;8.514;2022-12-07T10:26:54;10.20;;;4.55;;
69197;SDS011;56311;50.298;8.514;2022-12-07T10:29:21;8.75;;;4.65;;
69197;SDS011;56311;50.298;8.514;2022-12-07T10:31:52;9.48;;;4.30;;
69197;SDS011;56311;50.298;8.514;2022-12-07T10:34:22;9.35;;;4.32;;
69197;SDS011;56311;50.298;8.514;2022-12-07T10:36:51;6.22;;;3.97;;
69197;SDS011;56311;50.298;8.514;2022-12-07T10:39:19;6.25;;;3.65;;
69197;SDS011;56311;50.298;8.514;2022-12-07T10:41:54;7.78;;;3.88;;
69197;SDS011;56311;50.298;8.514;2022-12-07T10:44:23;12.20;;;4.70;;
69197;SDS011;56311;50.298;8.514;2022-12-07T10:46:56;10.52;;;4.38;;
69197;SDS011;56311;50.298;8.514;2022-12-07T10:49:55;10.93;;;3.92;;
69197;SDS011;56311;50.298;8.514;2022-12-07T10:52:38;12.07;;;4.28;;
69197;SDS011;56311;50.298;8.514;2022-12-07T10:55:18;7.80;;;3.80;;
69197;SDS011;56311;50.298;8.514;2022-12-07T11:00:49;8.88;;;4.28;;
69197;SDS011;56311;50.298;8.514;2022-12-07T11:03:30;6.60;;;3.60;;
69197;SDS011;56311;50.298;8.514;2022-12-07T11:06:10;8.02;;;3.88;;
69197;SDS011;56311;50.298;8.514;2022-12-07T11:08:50;9.75;;;4.35;;
69197;SDS011;56311;50.298;8.514;2022-12-07T11:11:29;8.93;;;4.20;;
69197;SDS011;56311;50.298;8.514;2022-12-07T11:14:02;12.05;;;4.50;;
69197;SDS011;56311;50.298;8.514;2022-12-07T11:16:42;11.35;;;3.97;;
69197;SDS011;56311;50.298;8.514;2022-12-07T11:19:27;8.00;;;4.18;;
69197;SDS011;56311;50.298;8.514;2022-12-07T11:22:03;9.20;;;3.95;;
69197;SDS011;56311;50.298;8.514;2022-12-07T11:24:37;11.18;;;3.88;;
69197;SDS011;56311;50.298;8.514;2022-12-07T11:27:17;7.00;;;3.95;;
69197;SDS011;56311;50.298;8.514;2022-12-07T11:32:49;10.48;;;3.97;;
69197;SDS011;56311;50.298;8.514;2022-12-07T11:35:30;10.82;;;4.60;;
69197;SDS011;56311;50.298;8.514;2022-12-07T11:38:13;11.65;;;4.00;;
69197;SDS011;56311;50.298;8.514;2022-12-07T11:40:47;8.15;;;3.92;;
69197;SDS011;56311;50.298;8.514;2022-12-07T11:43:18;7.97;;;4.45;;
69197;SDS011;56311;50.298;8.514;2022-12-07T11:45:51;9.33;;;3.80;;
69197;SDS011;56311;50.298;8.514;2022-12-07T11:48:24;7.95;;;3.80;;
69197;SDS011;56311;50.298;8.514;2022-12-07T11:51:00;8.48;;;3.72;;
69197;SDS011;56311;50.298;8.514;2022-12-07T11:53:29;9.85;;;3.97;;
69197;SDS011;56311;50.298;8.514;2022-12-07T11:56:03;10.38;;;3.90;;
69197;SDS011;56311;50.298;8.514;2022-12-07T11:58:38;7.80;;;3.17;;
69197;SDS011;56311;50.298;8.514;2022-12-07T12:01:15;10.13;;;3.70;;
69197;SDS011;56311;50.298;8.514;2022-12-07T12:03:53;6.78;;;3.47;;
69197;SDS011;56311;50.298;8.514;2022-12-07T12:06:25;9.90;;;4.07;;
69197;SDS011;56311;50.298;8.514;2022-12-07T12:08:53;7.82;;;4.43;;
69197;SDS011;56311;50.298;8.514;2022-12-07T12:14:46;7.60;;;3.55;;
69197;SDS011;56311;50.298;8.514;2022-12-07T12:17:37;6.13;;;3.60;;
69197;SDS011;56311;50.298;8.514;2022-12-07T12:20:19;5.82;;;3.00;;
69197;SDS011;56311;50.298;8.514;2022-12-07T12:22:52;6.32;;;3.67;;
69197;SDS011;56311;50.298;8.514;2022-12-07T12:25:23;5.90;;;3.55;;
69197;SDS011;56311;50.298;8.514;2022-12-07T12:27:52;5.00;;;2.38;;
69197;SDS011;56311;50.298;8.514;2022-12-07T12:33:13;5.50;;;2.80;;
69197;SDS011;56311;50.298;8.514;2022-12-07T12:35:44;6.25;;;2.95;;
69197;SDS011;56311;50.298;8.514;2022-12-07T12:40:56;7.35;;;3.10;;
69197;SDS011;56311;50.298;8.514;2022-12-07T12:55:18;11.07;;;3.97;;
69197;SDS011;56311;50.298;8.514;2022-12-07T12:58:29;8.88;;;3.58;;
69197;SDS011;56311;50.298;8.514;2022-12-07T13:04:00;10.95;;;4.07;;
69197;SDS011;56311;50.298;8.514;2022-12-07T13:06:32;8.30;;;4.43;;
69197;SDS011;56311;50.298;8.514;2022-12-07T13:09:01;9.25;;;4.25;;
69197;SDS011;56311;50.298;8.514;2022-12-07T13:11:31;8.48;;;4.55;;
69197;SDS011;56311;50.298;8.514;2022-12-07T13:17:08;8.55;;;4.15;;
69197;SDS011;56311;50.298;8.514;2022-12-07T13:25:19;8.68;;;3.72;;
69197;SDS011;56311;50.298;8.514;2022-12-07T13:27:56;10.77;;;4.10;;
69197;SDS011;56311;50.298;8.514;2022-12-07T13:30:27;10.00;;;3.63;;
69197;SDS011;56311;50.298;8.514;2022-12-07T13:32:56;9.65;;;4.22;;
69197;SDS011;56311;50.298;8.514;2022-12-07T13:35:28;8.93;;;3.50;;
69197;SDS011;56311;50.298;8.514;2022-12-07T13:37:57;9.35;;;3.38;;
69197;SDS011;56311;50.298;8.514;2022-12-07T13:40:24;8.20;;;3.25;;
69197;SDS011;56311;50.298;8.514;2022-12-07T13:43:00;7.63;;;3.33;;
69197;SDS011;56311;50.298;8.514;2022-12-07T13:45:31;9.27;;;3.03;;
69197;SDS011;56311;50.298;8.514;2022-12-07T13:48:19;6.95;;;2.60;;
69197;SDS011;56311;50.298;8.514;2022-12-07T13:50:55;7.07;;;2.83;;
69197;SDS011;56311;50.298;8.514;2022-12-07T13:53:24;8.73;;;3.10;;
69197;SDS011;56311;50.298;8.514;2022-12-07T13:55:58;7.40;;;2.83;;
69197;SDS011;56311;50.298;8.514;2022-12-07T13:58:29;6.68;;;2.97;;
69197;SDS011;56311;50.298;8.514;2022-12-07T14:00:58;9.80;;;3.30;;
69197;SDS011;56311;50.298;8.514;2022-12-07T14:03:29;7.53;;;3.10;;
69197;SDS011;56311;50.298;8.514;2022-12-07T14:06:05;9.13;;;3.10;;
69197;SDS011;56311;50.298;8.514;2022-12-07T14:08:39;5.55;;;2.72;;
69197;SDS011;56311;50.298;8.514;2022-12-07T14:11:12;7.15;;;3.03;;
69197;SDS011;56311;50.298;8.514;2022-12-07T14:13:51;8.45;;;3.10;;
69197;SDS011;56311;50.298;8.514;2022-12-07T14:16:25;7.15;;;3.13;;
69197;SDS011;56311;50.298;8.514;2022-12-07T14:18:56;9.40;;;3.63;;
69197;SDS011;56311;50.298;8.514;2022-12-07T14:21:25;8.75;;;2.97;;
69197;SDS011;56311;50.298;8.514;2022-12-07T14:24:15;7.88;;;3.00;;
69197;SDS011;56311;50.298;8.514;2022-12-07T14:26:45;8.23;;;3.17;;
69197;SDS011;56311;50.298;8.514;2022-12-07T14:29:31;6.28;;;3.15;;
69197;SDS011;56311;50.298;8.514;2022-12-07T14:32:11;6.15;;;2.50;;
69197;SDS011;56311;50.298;8.514;2022-12-07T14:35:02;8.70;;;2.70;;
69197;SDS011;56311;50.298;8.514;2022-12-07T14:37:36;7.95;;;2.67;;
69197;SDS011;56311;50.298;8.514;2022-12-07T14:40:05;6.53;;;2.50;;
69197;SDS011;56311;50.298;8.514;2022-12-07T14:42:33;7.88;;;2.90;;
69197;SDS011;56311;50.298;8.514;2022-12-07T14:45:03;6.07;;;2.90;;
69197;SDS011;56311;50.298;8.514;2022-12-07T14:47:30;8.35;;;3.05;;
69197;SDS011;56311;50.298;8.514;2022-12-07T14:50:19;9.27;;;2.90;;
69197;SDS011;56311;50.298;8.514;2022-12-07T14:52:48;6.22;;;2.90;;
69197;SDS011;56311;50.298;8.514;2022-12-07T14:55:39;7.47;;;3.00;;
69197;SDS011;56311;50.298;8.514;2022-12-07T14:58:08;7.40;;;3.45;;
69197;SDS011;56311;50.298;8.514;2022-12-07T15:00:42;9.40;;;3.17;;
69197;SDS011;56311;50.298;8.514;2022-12-07T15:03:11;8.27;;;2.95;;
69197;SDS011;56311;50.298;8.514;2022-12-07T15:05:39;7.07;;;2.85;;
69197;SDS011;56311;50.298;8.514;2022-12-07T15:08:10;7.22;;;2.90;;
69197;SDS011;56311;50.298;8.514;2022-12-07T15:10:39;8.23;;;3.03;;
69197;SDS011;56311;50.298;8.514;2022-12-07T15:13:07;8.07;;;3.35;;
69197;SDS011;56311;50.298;8.514;2022-12-07T15:15:55;7.65;;;3.13;;
69197;SDS011;56311;50.298;8.514;2022-12-07T15:18:22;11.20;;;3.88;;
69197;SDS011;56311;50.298;8.514;2022-12-07T15:20:50;7.88;;;3.00;;
69197;SDS011;56311;50.298;8.514;2022-12-07T15:23:18;6.05;;;3.30;;
69197;SDS011;56311;50.298;8.514;2022-12-07T15:25:46;7.43;;;3.40;;
69197;SDS011;56311;50.298;8.514;2022-12-07T15:28:15;10.45;;;3.85;;
69197;SDS011;56311;50.298;8.514;2022-12-07T15:30:42;17.13;;;6.07;;
69197;SDS011;56311;50.298;8.514;2022-12-07T15:33:12;8.73;;;3.70;;
69197;SDS011;56311;50.298;8.514;2022-12-07T15:35:40;19.67;;;10.68;;
69197;SDS011;56311;50.298;8.514;2022-12-07T15:38:08;23.88;;;14.05;;
69197;SDS011;56311;50.298;8.514;2022-12-07T15:40:35;13.15;;;7.70;;
69197;SDS011;56311;50.298;8.514;2022-12-07T15:43:03;18.23;;;8.63;;
69197;SDS011;56311;50.298;8.514;2022-12-07T15:45:30;9.93;;;5.43;;